Coupland, Texas
Current Conditions -  °F | °C
As of 10:55 AM on Thursday 30 Oct 2014 (Local Time) from KEDC Reporting Station
Broken Clouds Broken Clouds  
Wind Chill: 68°   Ceiling: 3500
Heat Index: 68°   Visibility: 10mi
Dew Point: 52°   Wind: 5mph
Humidity: 56%   Direction: 160°SSE
Pressure: 30.18"   Gusts: NA
Location:  30.46°N, 97.39°W
Report Text: KEDC 301555Z AUTO 16004KT 10SM BKN035 20/11 A3018 RMK AO2
Loading
Personal Weather Stations






























Interactive Weather Map
Tropical Storm Tracking
New forecast layout! Learn more

10-Day Weather Forecast

Advertisements
Track Severe Weather on mobile